createdAt,value
2022-10-19T00:01:21.663Z,10.20
2022-10-19T00:06:27.945Z,9.20
2022-10-19T00:09:01.198Z,9.20
2022-10-19T00:11:29.835Z,9.20
2022-10-19T00:13:58.148Z,10.00
2022-10-19T00:16:28.032Z,10.60
2022-10-19T00:19:00.223Z,10.10
2022-10-19T00:21:28.431Z,9.00
2022-10-19T00:23:55.995Z,9.00
2022-10-19T00:26:23.377Z,9.40
2022-10-19T00:28:54.881Z,10.10
2022-10-19T00:31:23.048Z,8.60
2022-10-19T00:33:50.916Z,10.60
2022-10-19T00:36:26.649Z,9.60
2022-10-19T00:38:54.848Z,8.80
2022-10-19T00:41:24.134Z,8.80
2022-10-19T00:44:04.902Z,8.70
2022-10-19T00:46:35.433Z,8.70
2022-10-19T00:49:12.348Z,8.50
2022-10-19T00:51:47.804Z,8.60
2022-10-19T00:54:16.264Z,9.60
2022-10-19T00:56:46.192Z,8.40
2022-10-19T00:59:16.468Z,8.60
2022-10-19T01:01:45.086Z,8.00
2022-10-19T01:04:13.715Z,8.60
2022-10-19T01:06:41.934Z,9.90
2022-10-19T01:09:09.557Z,8.20
2022-10-19T01:11:51.868Z,8.50
2022-10-19T01:14:49.601Z,8.40
2022-10-19T01:17:35.061Z,8.50
2022-10-19T01:20:20.408Z,8.40
2022-10-19T01:23:18.272Z,9.40
2022-10-19T01:26:30.181Z,8.40
2022-10-19T01:29:22.602Z,8.50
2022-10-19T01:31:52.905Z,8.50
2022-10-19T01:34:41.025Z,9.00
2022-10-19T01:37:18.964Z,9.50
2022-10-19T01:40:03.861Z,9.00
2022-10-19T01:42:45.180Z,8.40
2022-10-19T01:45:26.652Z,8.40
2022-10-19T01:48:10.087Z,8.40
2022-10-19T01:50:43.368Z,8.40
2022-10-19T01:53:12.615Z,8.40
2022-10-19T01:55:43.147Z,9.30
2022-10-19T01:58:14.739Z,8.90
2022-10-19T02:00:44.142Z,8.50
2022-10-19T02:03:12.896Z,8.00
2022-10-19T02:05:42.209Z,9.00
2022-10-19T02:08:20.367Z,9.10
2022-10-19T02:10:48.554Z,9.90
2022-10-19T02:13:16.937Z,8.20
2022-10-19T02:15:49.055Z,7.80
2022-10-19T02:18:23.715Z,7.80
2022-10-19T02:20:51.224Z,8.20
2022-10-19T02:23:21.979Z,8.10
2022-10-19T02:25:49.488Z,7.70
2022-10-19T02:28:16.900Z,7.70
2022-10-19T02:30:44.377Z,9.30
2022-10-19T02:33:12.646Z,9.70
2022-10-19T02:35:40.489Z,8.00
2022-10-19T02:38:11.742Z,8.00
2022-10-19T02:40:43.449Z,9.80
2022-10-19T02:43:15.016Z,9.30
2022-10-19T02:45:56.155Z,7.60
2022-10-19T02:48:26.135Z,7.90
2022-10-19T02:50:53.397Z,7.90
2022-10-19T02:53:20.748Z,7.20
2022-10-19T02:55:49.917Z,8.20
2022-10-19T02:58:17.244Z,7.50
2022-10-19T03:00:44.566Z,7.50
2022-10-19T03:03:11.948Z,7.70
2022-10-19T03:05:39.499Z,9.10
2022-10-19T03:08:06.849Z,7.90
2022-10-19T03:10:34.185Z,7.90
2022-10-19T03:13:01.470Z,9.30
2022-10-19T03:15:29.933Z,9.90
2022-10-19T03:17:59.316Z,7.60
2022-10-19T03:20:26.568Z,7.20
2022-10-19T03:25:21.121Z,8.70
2022-10-19T03:27:48.483Z,8.90
2022-10-19T03:30:15.857Z,7.30
2022-10-19T03:32:43.318Z,7.60
2022-10-19T03:35:10.577Z,7.70
2022-10-19T03:37:37.975Z,7.60
2022-10-19T03:40:05.716Z,8.90
2022-10-19T03:42:33.094Z,7.60
2022-10-19T03:45:00.423Z,7.40
2022-10-19T03:47:27.800Z,8.60
2022-10-19T03:49:55.149Z,7.60
2022-10-19T03:52:22.434Z,7.40
2022-10-19T03:54:51.124Z,8.20
2022-10-19T03:57:18.493Z,7.30
2022-10-19T03:59:45.879Z,7.30
2022-10-19T04:02:13.228Z,7.20
2022-10-19T04:04:40.520Z,8.10
2022-10-19T04:07:07.819Z,9.30
2022-10-19T04:09:35.114Z,7.30
2022-10-19T04:12:03.333Z,9.30
2022-10-19T04:14:32.854Z,7.50
2022-10-19T04:17:06.412Z,7.10
2022-10-19T04:19:33.818Z,7.40
2022-10-19T04:22:01.122Z,7.30
2022-10-19T04:24:28.948Z,7.90
2022-10-19T04:26:56.762Z,7.60
2022-10-19T04:29:29.476Z,7.30
2022-10-19T04:31:58.671Z,7.30
2022-10-19T04:34:26.054Z,7.30
2022-10-19T04:36:54.060Z,8.20
2022-10-19T04:39:21.414Z,8.60
2022-10-19T04:41:48.713Z,7.30
2022-10-19T04:44:16.039Z,7.30
2022-10-19T04:46:43.442Z,6.90
2022-10-19T04:49:10.882Z,7.40
2022-10-19T04:51:38.210Z,7.40
2022-10-19T04:54:05.578Z,9.40
2022-10-19T04:56:32.936Z,7.20
2022-10-19T04:59:00.893Z,6.70
2022-10-19T05:01:30.634Z,6.80
2022-10-19T05:04:00.985Z,7.40
2022-10-19T05:06:30.036Z,7.20
2022-10-19T05:08:57.716Z,8.00
2022-10-19T05:11:25.051Z,7.00
2022-10-19T05:13:52.363Z,7.00
2022-10-19T05:16:21.578Z,7.20
2022-10-19T05:18:58.964Z,7.40
2022-10-19T05:21:28.568Z,9.00
2022-10-19T05:23:56.882Z,7.20
2022-10-19T05:26:26.667Z,8.40
2022-10-19T05:28:57.222Z,7.40
2022-10-19T05:31:29.201Z,6.10
2022-10-19T05:33:57.237Z,6.70
2022-10-19T05:36:32.270Z,8.80
2022-10-19T05:39:04.310Z,8.70
2022-10-19T05:41:31.705Z,9.50
2022-10-19T05:44:03.243Z,7.40
2022-10-19T05:46:31.539Z,8.70
2022-10-19T05:48:59.956Z,8.90
2022-10-19T05:51:28.410Z,7.30
2022-10-19T05:53:56.770Z,9.30
2022-10-19T05:56:29.579Z,7.50
2022-10-19T05:58:58.765Z,9.40
2022-10-19T06:01:27.756Z,9.50
2022-10-19T06:03:56.951Z,9.10
2022-10-19T06:06:25.547Z,8.70
2022-10-19T06:08:54.267Z,9.00
2022-10-19T06:11:24.024Z,7.60
2022-10-19T06:13:53.408Z,8.80
2022-10-19T06:16:22.876Z,7.90
2022-10-19T06:18:50.870Z,7.20
2022-10-19T06:21:22.310Z,9.40
2022-10-19T06:23:54.525Z,9.10
2022-10-19T06:26:22.584Z,9.20
2022-10-19T06:28:50.637Z,7.50
2022-10-19T06:31:18.156Z,8.60
2022-10-19T06:33:48.631Z,9.30
2022-10-19T06:36:20.425Z,8.50
2022-10-19T06:38:48.172Z,7.30
2022-10-19T06:41:15.820Z,7.80
2022-10-19T06:43:43.593Z,7.80
2022-10-19T06:46:20.432Z,9.60
2022-10-19T06:48:52.964Z,9.00
2022-10-19T06:51:20.950Z,9.50
2022-10-19T06:53:51.710Z,7.90
2022-10-19T06:56:24.641Z,9.10
2022-10-19T06:58:52.834Z,10.40
2022-10-19T07:01:20.774Z,7.40
2022-10-19T07:03:48.156Z,8.10
2022-10-19T07:06:15.564Z,9.90
2022-10-19T07:08:43.905Z,8.70
2022-10-19T07:11:16.507Z,9.60
2022-10-19T07:13:44.245Z,10.30
2022-10-19T07:16:17.541Z,9.60
2022-10-19T07:18:50.136Z,9.60
2022-10-19T07:21:18.267Z,10.60
2022-10-19T07:23:47.355Z,10.00
2022-10-19T07:26:23.278Z,8.70
2022-10-19T07:28:51.309Z,8.80
2022-10-19T07:31:23.464Z,8.40
2022-10-19T07:33:58.445Z,8.90
2022-10-19T07:36:26.565Z,9.00
2022-10-19T07:38:53.977Z,10.50
2022-10-19T07:41:23.837Z,9.60
2022-10-19T07:43:51.635Z,9.40
2022-10-19T07:46:22.347Z,10.30
2022-10-19T07:48:49.928Z,9.30
2022-10-19T07:51:19.292Z,8.90
2022-10-19T07:53:47.045Z,9.00
2022-10-19T07:56:17.738Z,9.30
2022-10-19T07:58:45.175Z,9.40
2022-10-19T08:01:18.012Z,9.10
2022-10-19T08:06:33.769Z,9.60
2022-10-19T08:09:01.205Z,11.10
2022-10-19T08:11:32.073Z,9.30
2022-10-19T08:13:59.721Z,9.70
2022-10-19T08:16:38.798Z,11.40
2022-10-19T08:19:14.634Z,9.90
2022-10-19T08:21:44.451Z,10.00
2022-10-19T08:24:14.266Z,10.10
2022-10-19T08:26:42.020Z,10.20
2022-10-19T08:29:18.557Z,11.20
2022-10-19T08:31:48.228Z,10.70
2022-10-19T08:34:16.116Z,10.30
2022-10-19T08:36:43.932Z,11.10
2022-10-19T08:39:16.289Z,9.80
2022-10-19T08:42:14.502Z,12.20
2022-10-19T08:44:53.808Z,10.70
2022-10-19T08:47:55.267Z,10.70
2022-10-19T08:50:31.735Z,10.90
2022-10-19T08:53:15.461Z,11.00
2022-10-19T08:55:51.708Z,11.70
2022-10-19T08:58:46.884Z,11.20
2022-10-19T09:01:49.447Z,11.20
2022-10-19T09:04:32.863Z,11.40
2022-10-19T09:07:18.650Z,11.40
2022-10-19T09:10:02.604Z,11.60
2022-10-19T09:12:40.659Z,11.60
2022-10-19T09:15:13.606Z,11.70
2022-10-19T09:17:41.038Z,12.80
2022-10-19T09:20:18.729Z,11.80
2022-10-19T09:22:50.933Z,12.30
2022-10-19T09:25:23.142Z,12.90
2022-10-19T09:28:06.525Z,12.00
2022-10-19T09:30:37.769Z,12.10
2022-10-19T09:33:06.544Z,12.10
2022-10-19T09:35:43.062Z,12.50
2022-10-19T09:38:12.280Z,13.80
2022-10-19T09:40:41.087Z,12.40
2022-10-19T09:43:19.942Z,13.40
2022-10-19T09:46:20.084Z,13.90
2022-10-19T09:48:52.652Z,12.70
2022-10-19T09:51:21.321Z,12.50
2022-10-19T09:53:54.428Z,12.80
2022-10-19T09:56:26.713Z,12.80
2022-10-19T09:58:59.450Z,14.10
2022-10-19T10:01:43.065Z,12.90
2022-10-19T10:04:16.310Z,12.90
2022-10-19T10:06:46.711Z,14.40
2022-10-19T10:09:19.182Z,13.00
2022-10-19T10:11:49.651Z,14.10
2022-10-19T10:14:25.652Z,13.60
2022-10-19T10:17:01.144Z,13.10
2022-10-19T10:19:31.162Z,14.60
2022-10-19T10:21:59.792Z,12.40
2022-10-19T10:24:29.366Z,14.60
2022-10-19T10:27:06.690Z,13.20
2022-10-19T10:29:36.361Z,13.30
2022-10-19T10:32:11.616Z,13.20
2022-10-19T10:35:16.492Z,13.40
2022-10-19T10:37:46.582Z,13.50
2022-10-19T10:40:24.163Z,13.60
2022-10-19T10:42:54.366Z,13.60
2022-10-19T10:45:42.708Z,13.60
2022-10-19T10:48:37.921Z,13.70
2022-10-19T10:51:23.772Z,13.50
2022-10-19T10:53:51.352Z,13.60
2022-10-19T10:56:33.354Z,13.60
2022-10-19T10:59:22.029Z,13.00
2022-10-19T11:02:03.448Z,14.60
2022-10-19T11:04:38.544Z,13.70
2022-10-19T11:07:17.623Z,13.70
2022-10-19T11:09:52.468Z,13.70
2022-10-19T11:12:35.958Z,13.80
2022-10-19T11:15:16.160Z,15.30
2022-10-19T11:18:01.712Z,14.00
2022-10-19T11:20:32.449Z,14.10
2022-10-19T11:23:09.920Z,15.60
2022-10-19T11:25:46.408Z,14.20
2022-10-19T11:28:19.704Z,14.30
2022-10-19T11:31:20.162Z,14.30
2022-10-19T11:34:03.458Z,14.40
2022-10-19T11:36:41.105Z,14.50
2022-10-19T11:39:35.677Z,14.90
2022-10-19T11:42:15.079Z,14.50
2022-10-19T11:45:04.960Z,14.70
2022-10-19T11:48:04.485Z,14.50
2022-10-19T11:50:54.302Z,14.60
2022-10-19T11:53:31.570Z,14.50
2022-10-19T11:55:58.916Z,14.60
2022-10-19T11:58:44.365Z,14.70
2022-10-19T12:01:25.705Z,14.70
2022-10-19T12:04:01.391Z,14.70
2022-10-19T12:06:36.961Z,14.70
2022-10-19T12:09:30.599Z,16.60
2022-10-19T12:12:16.000Z,14.80
2022-10-19T12:14:48.178Z,14.80
2022-10-19T12:17:29.598Z,14.90
2022-10-19T12:20:06.552Z,15.50
2022-10-19T12:22:37.396Z,14.90
2022-10-19T12:25:05.340Z,14.90
2022-10-19T12:27:40.460Z,14.90
2022-10-19T12:30:14.651Z,14.90
2022-10-19T12:33:06.023Z,15.00
2022-10-19T12:35:55.985Z,15.00
2022-10-19T12:38:45.939Z,15.70
2022-10-19T12:41:29.754Z,15.40
2022-10-19T12:44:28.618Z,15.00
2022-10-19T12:47:11.475Z,15.10
2022-10-19T12:49:55.840Z,15.10
2022-10-19T12:52:52.308Z,15.20
2022-10-19T12:55:27.647Z,15.20
2022-10-19T12:58:21.668Z,15.20
2022-10-19T13:01:04.446Z,15.20
2022-10-19T13:03:36.851Z,15.20
2022-10-19T13:06:18.688Z,15.20
2022-10-19T13:08:57.264Z,15.30
2022-10-19T13:11:25.103Z,15.30
2022-10-19T13:14:23.482Z,15.30
2022-10-19T13:17:01.598Z,13.40
2022-10-19T13:19:30.021Z,15.30
2022-10-19T13:22:20.325Z,15.60
2022-10-19T13:25:16.979Z,17.10
2022-10-19T13:27:46.272Z,15.30
2022-10-19T13:30:35.504Z,15.30
2022-10-19T13:33:24.860Z,15.40
2022-10-19T13:36:02.401Z,15.50
2022-10-19T13:38:39.966Z,15.50
2022-10-19T13:41:39.101Z,15.50
2022-10-19T13:44:10.285Z,15.50
2022-10-19T13:47:07.039Z,15.60
2022-10-19T13:50:12.037Z,15.80
2022-10-19T13:52:51.250Z,16.70
2022-10-19T13:55:53.576Z,17.60
2022-10-19T13:59:03.173Z,18.30
2022-10-19T14:01:48.776Z,18.80
2022-10-19T14:04:37.729Z,18.90
2022-10-19T14:07:12.691Z,18.70
2022-10-19T14:10:14.204Z,19.00
2022-10-19T14:12:43.718Z,18.70
2022-10-19T14:15:30.248Z,18.90
2022-10-19T14:18:01.262Z,19.80
2022-10-19T14:20:35.273Z,19.50
2022-10-19T14:23:29.524Z,19.60
2022-10-19T14:26:20.290Z,19.70
2022-10-19T14:28:53.554Z,19.70
2022-10-19T14:31:25.030Z,19.30
2022-10-19T14:33:57.980Z,19.70
2022-10-19T14:36:31.385Z,18.00
2022-10-19T14:38:58.904Z,17.50
2022-10-19T14:41:32.739Z,17.20
2022-10-19T14:44:02.694Z,16.90
2022-10-19T14:46:32.469Z,16.70
2022-10-19T14:49:02.576Z,16.40
2022-10-19T14:52:05.572Z,16.30
2022-10-19T14:54:38.886Z,16.00
2022-10-19T14:57:17.721Z,16.10
2022-10-19T14:59:56.601Z,16.50
2022-10-19T15:02:44.273Z,15.60
2022-10-19T15:05:20.538Z,15.50
2022-10-19T15:07:48.328Z,15.40
2022-10-19T15:10:30.296Z,16.60
2022-10-19T15:13:06.739Z,15.20
2022-10-19T15:15:35.588Z,16.90
2022-10-19T15:18:04.540Z,15.00
2022-10-19T15:20:54.947Z,15.00
2022-10-19T15:23:46.608Z,14.90
2022-10-19T15:26:20.014Z,14.90
2022-10-19T15:28:48.361Z,14.70
2022-10-19T15:31:27.460Z,14.90
2022-10-19T15:34:00.600Z,14.60
2022-10-19T15:36:29.861Z,15.90
2022-10-19T15:39:32.956Z,14.70
2022-10-19T15:42:44.125Z,14.50
2022-10-19T15:45:31.244Z,14.40
2022-10-19T15:48:21.648Z,14.40
2022-10-19T15:50:51.896Z,14.30
2022-10-19T15:53:20.654Z,14.60
2022-10-19T15:55:48.611Z,14.10
2022-10-19T15:58:16.177Z,15.80
2022-10-19T16:00:43.645Z,14.00
2022-10-19T16:03:10.980Z,14.00
2022-10-19T16:05:38.428Z,14.00
2022-10-19T16:08:08.923Z,13.90
2022-10-19T16:10:39.056Z,13.90
2022-10-19T16:13:06.540Z,14.30
2022-10-19T16:15:33.876Z,14.00
2022-10-19T16:18:01.169Z,13.70
2022-10-19T16:20:29.834Z,14.80
2022-10-19T16:22:57.950Z,13.60
2022-10-19T16:25:25.299Z,13.50
2022-10-19T16:27:52.594Z,13.50
2022-10-19T16:30:19.987Z,14.90
2022-10-19T16:32:50.815Z,13.40
2022-10-19T16:35:18.117Z,13.40
2022-10-19T16:37:45.414Z,13.30
2022-10-19T16:40:13.014Z,12.90
2022-10-19T16:42:40.430Z,13.20
2022-10-19T16:45:08.610Z,14.20
2022-10-19T16:47:36.037Z,13.20
2022-10-19T16:50:06.162Z,13.10
2022-10-19T16:52:33.987Z,13.10
2022-10-19T16:55:01.659Z,13.60
2022-10-19T16:57:28.965Z,13.00
2022-10-19T16:59:56.345Z,12.80
2022-10-19T17:02:23.898Z,14.00
2022-10-19T17:04:51.177Z,12.80
2022-10-19T17:07:18.864Z,12.60
2022-10-19T17:09:47.841Z,12.80
2022-10-19T17:12:17.076Z,12.80
2022-10-19T17:14:44.480Z,12.80
2022-10-19T17:17:11.879Z,12.70
2022-10-19T17:19:39.558Z,14.00
2022-10-19T17:22:06.957Z,12.70
2022-10-19T17:24:34.732Z,13.60
2022-10-19T17:27:05.369Z,13.50
2022-10-19T17:29:32.693Z,14.70
2022-10-19T17:32:00.126Z,13.00
2022-10-19T17:34:27.598Z,12.50
2022-10-19T17:36:55.009Z,12.50
2022-10-19T17:39:27.204Z,12.40
2022-10-19T17:42:01.612Z,12.60
2022-10-19T17:44:31.187Z,12.20
2022-10-19T17:47:00.264Z,12.40
2022-10-19T17:49:29.660Z,14.30
2022-10-19T17:51:57.047Z,14.00
2022-10-19T17:54:24.427Z,12.30
2022-10-19T17:56:51.794Z,12.70
2022-10-19T17:59:30.259Z,12.30
2022-10-19T18:02:04.030Z,12.30
2022-10-19T18:04:31.860Z,12.80
2022-10-19T18:06:59.309Z,13.30
2022-10-19T18:09:26.681Z,13.90
2022-10-19T18:11:53.986Z,12.20
2022-10-19T18:14:21.514Z,13.40
2022-10-19T18:16:50.331Z,12.20
2022-10-19T18:19:17.804Z,12.20
2022-10-19T18:21:47.262Z,12.10
2022-10-19T18:24:19.381Z,12.10
2022-10-19T18:26:50.798Z,12.10
2022-10-19T18:29:21.429Z,13.20
2022-10-19T18:31:51.689Z,14.00
2022-10-19T18:34:22.581Z,12.00
2022-10-19T18:36:50.466Z,13.70
2022-10-19T18:39:18.311Z,12.00
2022-10-19T18:41:45.865Z,11.50
2022-10-19T18:44:14.283Z,11.90
2022-10-19T18:46:41.694Z,13.30
2022-10-19T18:49:11.186Z,11.90
2022-10-19T18:51:38.607Z,11.80
2022-10-19T18:54:05.964Z,12.40
2022-10-19T18:56:33.511Z,11.80
2022-10-19T18:59:00.839Z,11.80
2022-10-19T19:01:29.145Z,12.30
2022-10-19T19:03:58.383Z,12.50
2022-10-19T19:06:33.052Z,11.70
2022-10-19T19:09:01.245Z,13.60
2022-10-19T19:11:34.295Z,11.70
2022-10-19T19:14:07.629Z,11.60
2022-10-19T19:16:37.020Z,13.20
2022-10-19T19:19:05.941Z,13.40
2022-10-19T19:21:35.087Z,11.50
2022-10-19T19:24:04.914Z,11.10
2022-10-19T19:26:37.169Z,11.50
2022-10-19T19:29:04.884Z,11.50
2022-10-19T19:31:32.273Z,12.80
2022-10-19T19:34:01.095Z,12.30
2022-10-19T19:36:29.075Z,11.20
2022-10-19T19:38:57.319Z,11.40
2022-10-19T19:41:24.857Z,11.30
2022-10-19T19:43:52.137Z,11.30
2022-10-19T19:46:19.811Z,11.30
2022-10-19T19:48:48.125Z,11.50
2022-10-19T19:51:18.137Z,12.30
2022-10-19T19:53:46.495Z,12.50
2022-10-19T19:56:15.231Z,11.10
2022-10-19T19:58:43.673Z,11.20
2022-10-19T20:01:19.397Z,11.20
2022-10-19T20:03:47.668Z,12.00
2022-10-19T20:06:18.676Z,11.10
2022-10-19T20:08:48.163Z,10.90
2022-10-19T20:11:17.496Z,11.00
2022-10-19T20:13:45.810Z,11.60
2022-10-19T20:16:19.309Z,11.00
2022-10-19T20:18:49.060Z,11.00
2022-10-19T20:21:17.890Z,11.70
2022-10-19T20:23:46.423Z,12.00
2022-10-19T20:26:19.183Z,10.60
2022-10-19T20:28:46.788Z,10.70
2022-10-19T20:31:14.414Z,12.10
2022-10-19T20:33:43.178Z,10.60
2022-10-19T20:36:22.102Z,10.80
2022-10-19T20:38:54.750Z,10.80
2022-10-19T20:41:23.719Z,10.80
2022-10-19T20:43:51.762Z,10.80
2022-10-19T20:46:29.905Z,10.80
2022-10-19T20:49:02.112Z,10.80
2022-10-19T20:51:36.448Z,11.30
2022-10-19T20:54:06.308Z,11.20
2022-10-19T20:56:36.456Z,11.50
2022-10-19T20:59:10.863Z,10.70
2022-10-19T21:01:39.871Z,10.60
2022-10-19T21:04:10.977Z,10.50
2022-10-19T21:06:43.782Z,10.60
2022-10-19T21:09:12.559Z,10.60
2022-10-19T21:11:41.499Z,10.50
2022-10-19T21:14:12.791Z,11.10
2022-10-19T21:16:40.548Z,11.70
2022-10-19T21:19:13.643Z,11.40
2022-10-19T21:21:43.649Z,10.50
2022-10-19T21:24:19.544Z,10.50
2022-10-19T21:26:47.290Z,10.50
2022-10-19T21:29:15.886Z,10.40
2022-10-19T21:31:48.646Z,10.40
2022-10-19T21:34:35.308Z,10.50
2022-10-19T21:37:02.787Z,10.40
2022-10-19T21:39:30.124Z,10.40
2022-10-19T21:41:58.011Z,10.10
2022-10-19T21:44:25.430Z,10.30
2022-10-19T21:46:52.682Z,10.30
2022-10-19T21:49:19.998Z,10.30
2022-10-19T21:51:54.554Z,10.30
2022-10-19T21:54:27.565Z,11.20
2022-10-19T21:56:56.620Z,10.00
2022-10-19T21:59:25.039Z,10.90
2022-10-19T22:01:54.621Z,11.10
2022-10-19T22:04:23.025Z,10.80
2022-10-19T22:06:50.796Z,10.20
2022-10-19T22:09:20.475Z,10.10
2022-10-19T22:11:48.181Z,10.10
2022-10-19T22:14:16.481Z,10.50
2022-10-19T22:16:44.409Z,11.30
2022-10-19T22:19:12.490Z,10.90
2022-10-19T22:21:40.288Z,10.00
2022-10-19T22:24:11.125Z,10.40
2022-10-19T22:26:41.541Z,9.50
2022-10-19T22:29:09.091Z,10.60
2022-10-19T22:31:37.352Z,10.80
2022-10-19T22:34:11.144Z,9.80
2022-10-19T22:36:38.708Z,10.00
2022-10-19T22:39:07.075Z,10.00
2022-10-19T22:42:30.533Z,9.90
2022-10-19T22:45:16.569Z,10.00
2022-10-19T22:47:43.832Z,9.90
2022-10-19T22:50:11.811Z,10.90
2022-10-19T22:52:39.271Z,9.80
2022-10-19T22:55:06.877Z,11.80
2022-10-19T22:57:34.208Z,9.90
2022-10-19T23:00:01.461Z,9.70
2022-10-19T23:02:29.493Z,10.00
2022-10-19T23:04:56.801Z,9.70
2022-10-19T23:07:24.112Z,9.90
2022-10-19T23:09:51.712Z,9.60
2022-10-19T23:12:18.981Z,9.90
2022-10-19T23:14:46.241Z,9.60
2022-10-19T23:17:13.553Z,9.90
2022-10-19T23:19:40.813Z,10.20
2022-10-19T23:22:08.120Z,10.60
2022-10-19T23:24:35.408Z,9.80
2022-10-19T23:27:02.785Z,9.90
2022-10-19T23:29:30.015Z,10.30
2022-10-19T23:31:57.292Z,10.50
2022-10-19T23:34:24.725Z,9.50
2022-10-19T23:36:51.999Z,10.40
2022-10-19T23:39:19.331Z,9.70
2022-10-19T23:41:46.591Z,10.90
2022-10-19T23:44:13.873Z,10.90
2022-10-19T23:46:41.152Z,11.20
2022-10-19T23:49:08.438Z,11.60
2022-10-19T23:51:35.726Z,9.80
2022-10-19T23:54:03.109Z,10.00
2022-10-19T23:56:30.405Z,9.90
2022-10-19T23:58:57.871Z,9.80
